Airfield :
LOGIN :

Register | Disclaimer

   EN    FR    IT 

 










Legend :    VFR   Marginal VFR   IFR   Intensive IFR   Very Intensive IFR
Visi :
Ceiling :
>= 8 km
>= 3000ft
5 to 8 km
1000 to 3000 ft
1500m to 5 km
500 to 1000 ft
800 to 1500m
200 to 500 ft
< 800m
< 200 ft
Symbols :   Thunderstorms  Fog  Heavy snow  Heavy precipitations  Wind > 20 kt
SIGMETs :     Misc.  Thunderstorms  Icing  Turbulence  Mountain Waves  Volcanic Ashes






- Airport Elevation : 39 ft
- IATA code : ANR


EBAW - Anvers / Antwerpen Deurne

CURRENT METAR :
  • 310020Z AUTO 20007KT 180V240 9999 // OVC007/// 14/12 Q1023

EXPIRED METARs :
  • 302350Z AUTO 21007KT 180V240 9999 // OVC008/// 14/12 Q1023
  • 302320Z AUTO 21007KT 9999 // BKN008/// OVC009/// 14/12 Q1023
  • 302250Z AUTO 22008KT 9999 // BKN009/// OVC010/// 14/12 Q1023
  • 302220Z AUTO 22008KT 200V260 9999 // OVC010/// 14/12 Q1023
  • 302150Z 22009KT 190V250 9999 BKN009 14/12 Q1023 NOSIG

TAF TAF EBAW
Valid from the 31 at 00:00 until the 31 at 09:00 UTC


302309Z 3100/3109 20007KT 9999 BKN020



MET'MAP, your aeronautical weather chart ! - Copyright ORBIFLY December 2007 - Disclaimer

ORBIFLY MET'MAP TEAM :

Programming & Development : Alexandra Zaïnal
Concept & original design : Baudouin d'Aumeries
Assistance for programming : Marc-Olivier Méhu
Technical & hardware support : Manuel Goepfert

Contact : metmap@orbifly.com




SOURCES & CREDITS :

   NOAA